Time;durP1;ratioP1;P1;durP2;ratioP2;P2;SDS_P1;SDS_P2;PMS_P1;PMS_P2;Temp;Humidity;BMP_temperature;BMP_pressure;BME280_temperature;BME280_humidity;BME280_pressure;Samples;Min_cycle;Max_cycle;Signal;HPM_P1;HPM_P2
2024/01/28 00:00:34;;;;;;;15.82;3.70;;;3.40;99.90;;;;;;5096436;28;20047;-43
2024/01/28 00:02:59;;;;;;;18.13;3.58;;;3.50;99.90;;;;;;5094538;28;20040;-46
2024/01/28 00:05:25;;;;;;;14.20;5.70;;;3.50;99.90;;;;;;5094597;28;20023;-45
2024/01/28 00:07:51;;;;;;;15.10;4.03;;;3.50;99.90;;;;;;5093118;28;20142;-43
2024/01/28 00:10:16;;;;;;;17.55;3.83;;;3.50;99.90;;;;;;5094467;28;20107;-43
2024/01/28 00:12:42;;;;;;;15.32;4.50;;;3.50;99.90;;;;;;5092797;28;20101;-45
2024/01/28 00:15:10;;;;;;;24.85;3.88;;;3.50;99.90;;;;;;5093499;28;20047;-45
2024/01/28 00:17:35;;;;;;;26.85;4.38;;;3.50;99.90;;;;;;5094066;28;20039;-43
2024/01/28 00:20:03;;;;;;;24.73;3.85;;;3.50;99.90;;;;;;5094526;28;20036;-44
2024/01/28 00:22:29;;;;;;;15.18;4.43;;;3.60;99.90;;;;;;5095386;28;20024;-44
2024/01/28 00:24:54;;;;;;;20.73;4.97;;;3.50;99.90;;;;;;5092774;28;20016;-44
2024/01/28 00:27:23;;;;;;;19.02;3.80;;;3.50;99.90;;;;;;5094991;28;20115;-42
2024/01/28 00:29:49;;;;;;;14.50;3.45;;;3.50;99.90;;;;;;5093572;28;20043;-44
2024/01/28 00:32:14;;;;;;;13.45;4.50;;;3.50;99.90;;;;;;5093698;28;20064;-45
2024/01/28 00:34:43;;;;;;;13.32;4.03;;;3.50;99.90;;;;;;5091692;28;20031;-43
2024/01/28 00:37:10;;;;;;;20.58;4.05;;;3.50;99.90;;;;;;5090709;28;20035;-44
2024/01/28 00:39:35;;;;;;;14.27;3.70;;;3.50;99.90;;;;;;5089501;28;20032;-42
2024/01/28 00:42:03;;;;;;;12.18;3.80;;;3.40;99.90;;;;;;5091535;28;20020;-43
2024/01/28 00:44:28;;;;;;;13.85;3.55;;;3.40;99.90;;;;;;5089113;28;20481;-45
2024/01/28 00:46:55;;;;;;;21.92;4.50;;;3.40;99.90;;;;;;5091762;28;20023;-44
2024/01/28 00:49:23;;;;;;;14.52;4.40;;;3.40;99.90;;;;;;5093466;28;20020;-46
2024/01/28 00:51:49;;;;;;;23.92;4.60;;;3.40;99.90;;;;;;5095645;28;20020;-42
2024/01/28 00:54:15;;;;;;;14.63;4.60;;;3.40;99.90;;;;;;5093582;28;20408;-43
2024/01/28 00:56:43;;;;;;;25.48;5.60;;;3.30;99.90;;;;;;5096733;28;20019;-45
2024/01/28 00:59:09;;;;;;;11.73;3.58;;;3.30;99.90;;;;;;5094877;28;20085;-44
2024/01/28 01:01:34;;;;;;;20.83;4.88;;;3.20;99.90;;;;;;5096096;28;20032;-43
2024/01/28 01:04:00;;;;;;;15.07;3.65;;;3.20;99.90;;;;;;5094855;28;20074;-43
2024/01/28 01:06:26;;;;;;;18.70;4.78;;;3.20;99.90;;;;;;5096333;28;20026;-45
2024/01/28 01:08:51;;;;;;;13.45;4.28;;;3.20;99.90;;;;;;5096123;28;20459;-43
2024/01/28 01:11:17;;;;;;;20.92;4.30;;;3.20;99.90;;;;;;5095139;28;20048;-44
2024/01/28 01:13:42;;;;;;;23.00;4.13;;;3.10;99.90;;;;;;5097060;28;20031;-44
2024/01/28 01:16:08;;;;;;;12.63;4.05;;;3.10;99.90;;;;;;5095418;28;20488;-43
2024/01/28 01:18:34;;;;;;;13.55;4.00;;;3.10;99.90;;;;;;5095938;28;20073;-45
2024/01/28 01:20:59;;;;;;;14.43;4.13;;;3.00;99.90;;;;;;5095364;28;20085;-45
2024/01/28 01:23:25;;;;;;;22.88;4.53;;;3.00;99.90;;;;;;5094808;28;20032;-43
2024/01/28 01:25:50;;;;;;;16.75;4.07;;;2.80;99.90;;;;;;5096776;28;20031;-44
2024/01/28 01:28:16;;;;;;;17.58;4.50;;;2.70;99.90;;;;;;5095647;28;20693;-46
2024/01/28 01:30:41;;;;;;;23.25;5.25;;;2.70;99.90;;;;;;5096219;28;20111;-43
2024/01/28 01:33:07;;;;;;;11.77;4.32;;;2.60;99.90;;;;;;5095139;28;20054;-45
2024/01/28 01:35:33;;;;;;;12.10;3.97;;;2.60;99.90;;;;;;5096102;28;20032;-44
2024/01/28 01:37:58;;;;;;;9.20;3.30;;;2.50;99.90;;;;;;5095786;28;20036;-47
2024/01/28 01:40:24;;;;;;;12.45;4.13;;;2.50;99.90;;;;;;5096172;28;20043;-44
2024/01/28 01:42:50;;;;;;;14.95;4.10;;;2.30;99.90;;;;;;5096583;28;20028;-43
2024/01/28 01:45:16;;;;;;;10.13;3.72;;;2.20;99.90;;;;;;5094106;28;20027;-42
2024/01/28 01:47:42;;;;;;;11.68;3.53;;;2.10;99.90;;;;;;5097769;28;20024;-42
2024/01/28 01:50:10;;;;;;;10.68;3.97;;;2.10;99.90;;;;;;5095511;28;20545;-42
2024/01/28 01:52:42;;;;;;;14.43;5.13;;;2.00;99.90;;;;;;5097469;28;20031;-43
2024/01/28 01:55:08;;;;;;;12.93;3.78;;;2.00;99.90;;;;;;5095704;28;20046;-42
2024/01/28 01:57:37;;;;;;;14.13;4.20;;;1.90;99.90;;;;;;5097507;28;20059;-45
2024/01/28 02:00:03;;;;;;;12.57;4.45;;;1.80;99.90;;;;;;5089717;28;20468;-43
2024/01/28 02:02:29;;;;;;;17.25;4.85;;;1.80;99.90;;;;;;5095006;28;20024;-44
2024/01/28 02:04:56;;;;;;;17.00;5.57;;;1.80;99.90;;;;;;5095779;28;20030;-44
2024/01/28 02:07:22;;;;;;;20.08;4.22;;;1.70;99.90;;;;;;5094918;28;20019;-44
2024/01/28 02:09:47;;;;;;;20.17;4.25;;;1.70;99.90;;;;;;5095008;28;20077;-47
2024/01/28 02:12:13;;;;;;;18.20;4.85;;;1.60;99.90;;;;;;5094994;28;20074;-43
2024/01/28 02:14:39;;;;;;;15.95;3.72;;;1.60;99.90;;;;;;5096278;28;20067;-46
2024/01/28 02:17:05;;;;;;;9.70;4.40;;;1.50;99.90;;;;;;5095339;28;20020;-44
2024/01/28 02:19:31;;;;;;;11.07;4.50;;;1.50;99.90;;;;;;5095617;28;20035;-43
2024/01/28 02:21:56;;;;;;;17.63;4.55;;;1.40;99.90;;;;;;5095924;28;20027;-45
2024/01/28 02:24:22;;;;;;;20.73;9.52;;;1.40;99.90;;;;;;5095961;28;20017;-43
2024/01/28 02:26:47;;;;;;;19.35;8.18;;;1.40;99.90;;;;;;5097655;28;20016;-42
2024/01/28 02:29:13;;;;;;;15.93;6.68;;;1.40;99.90;;;;;;5095441;28;20028;-44
2024/01/28 02:31:38;;;;;;;23.00;5.13;;;1.40;99.90;;;;;;5098072;28;20640;-43
2024/01/28 02:34:04;;;;;;;13.15;4.13;;;1.40;99.90;;;;;;5095964;28;20498;-42
2024/01/28 02:36:31;;;;;;;18.27;4.47;;;1.40;99.90;;;;;;5097228;28;20024;-44
2024/01/28 02:38:58;;;;;;;15.73;3.92;;;1.40;99.90;;;;;;5096711;28;20046;-44
2024/01/28 02:41:24;;;;;;;12.65;3.55;;;1.30;99.90;;;;;;5096234;28;20008;-46
2024/01/28 02:43:50;;;;;;;13.05;4.10;;;1.30;99.90;;;;;;5103324;28;20023;-45
2024/01/28 02:46:15;;;;;;;11.05;4.00;;;1.40;99.90;;;;;;5094625;28;20052;-43
2024/01/28 02:48:41;;;;;;;14.05;4.20;;;1.30;99.90;;;;;;5098660;28;20443;-42
2024/01/28 02:51:07;;;;;;;12.60;3.60;;;1.30;99.90;;;;;;5095848;28;20024;-44
2024/01/28 02:53:32;;;;;;;20.60;4.80;;;1.30;99.90;;;;;;5098138;28;20020;-43
2024/01/28 02:56:00;;;;;;;20.08;4.43;;;1.20;99.90;;;;;;5097058;28;20103;-43
2024/01/28 02:58:26;;;;;;;22.08;4.55;;;1.10;99.90;;;;;;5096866;28;20557;-43
2024/01/28 03:00:52;;;;;;;11.30;4.00;;;1.00;99.90;;;;;;5097825;28;20077;-45
2024/01/28 03:03:18;;;;;;;10.30;3.72;;;1.00;99.90;;;;;;5095746;28;20022;-44
2024/01/28 03:05:43;;;;;;;12.43;3.38;;;0.80;99.90;;;;;;5102890;28;20488;-44
2024/01/28 03:08:09;;;;;;;16.38;4.15;;;0.80;99.90;;;;;;5100031;28;20041;-42
2024/01/28 03:10:35;;;;;;;12.52;3.60;;;0.80;99.90;;;;;;5102200;28;20063;-43
2024/01/28 03:13:00;;;;;;;14.13;4.47;;;0.80;99.90;;;;;;5100639;28;20023;-44
2024/01/28 03:15:26;;;;;;;18.55;5.22;;;0.90;99.90;;;;;;5101096;28;20028;-44
2024/01/28 03:17:51;;;;;;;9.98;3.38;;;0.80;99.90;;;;;;5101188;28;20019;-42
2024/01/28 03:20:18;;;;;;;18.67;4.35;;;0.80;99.90;;;;;;5100092;28;20098;-44
2024/01/28 03:22:43;;;;;;;20.52;4.47;;;0.80;99.90;;;;;;5102687;28;20016;-46
2024/01/28 03:25:09;;;;;;;13.77;3.88;;;0.80;99.90;;;;;;5100225;28;20047;-43
2024/01/28 03:27:35;;;;;;;21.85;4.88;;;0.80;99.90;;;;;;5102254;28;20424;-43
2024/01/28 03:30:04;;;;;;;17.23;4.18;;;0.80;99.90;;;;;;5099967;28;20016;-43
2024/01/28 03:32:30;;;;;;;10.75;3.92;;;0.70;99.90;;;;;;5105750;28;20103;-42
2024/01/28 03:34:56;;;;;;;19.80;4.70;;;0.70;99.90;;;;;;5100788;28;20035;-42
2024/01/28 03:37:21;;;;;;;15.65;3.83;;;0.70;99.90;;;;;;5103012;28;20028;-43
2024/01/28 03:39:47;;;;;;;17.27;4.95;;;0.70;99.90;;;;;;5107308;28;20042;-45
2024/01/28 03:42:13;;;;;;;20.13;4.55;;;0.70;99.90;;;;;;5099300;28;20035;-42
2024/01/28 03:44:38;;;;;;;19.38;4.13;;;0.70;99.90;;;;;;5106233;28;20389;-43
2024/01/28 03:47:04;;;;;;;19.38;4.40;;;0.80;99.90;;;;;;5100842;28;20025;-42
2024/01/28 03:49:29;;;;;;;10.90;3.65;;;0.70;99.90;;;;;;5101761;28;20016;-43
2024/01/28 03:51:55;;;;;;;10.52;4.22;;;0.70;99.90;;;;;;5101845;28;20504;-43
2024/01/28 03:54:20;;;;;;;12.25;3.88;;;0.60;99.90;;;;;;5100197;28;20016;-43
2024/01/28 03:56:46;;;;;;;15.50;4.68;;;0.60;99.90;;;;;;5103239;28;20088;-44
2024/01/28 03:59:13;;;;;;;19.17;4.65;;;0.50;99.90;;;;;;5096548;28;20107;-42
2024/01/28 04:01:39;;;;;;;21.85;4.28;;;0.50;99.90;;;;;;5099831;28;21388;-43
2024/01/28 04:04:05;;;;;;;12.13;4.00;;;0.50;99.90;;;;;;5100013;28;20114;-43
2024/01/28 04:06:31;;;;;;;22.70;5.03;;;0.40;99.90;;;;;;5101764;28;20562;-42
2024/01/28 04:08:57;;;;;;;15.48;4.20;;;0.40;99.90;;;;;;5101930;28;20574;-42
2024/01/28 04:11:26;;;;;;;12.38;4.40;;;0.40;99.90;;;;;;5098858;28;20020;-43
2024/01/28 04:13:55;;;;;;;15.25;4.43;;;0.40;99.90;;;;;;5102647;28;20088;-43
2024/01/28 04:16:22;;;;;;;16.67;3.63;;;0.40;99.90;;;;;;5100375;28;20017;-44
2024/01/28 04:18:48;;;;;;;20.77;4.20;;;0.40;99.90;;;;;;5103296;28;20039;-45
2024/01/28 04:21:14;;;;;;;16.40;3.80;;;0.30;99.90;;;;;;5098550;28;20028;-42
2024/01/28 04:23:39;;;;;;;16.48;4.78;;;0.40;99.90;;;;;;5102927;28;20031;-43
2024/01/28 04:26:05;;;;;;;12.30;4.35;;;0.40;99.90;;;;;;5100996;28;20039;-43
2024/01/28 04:28:31;;;;;;;19.75;4.65;;;0.30;99.90;;;;;;5101765;28;20019;-43
2024/01/28 04:30:58;;;;;;;11.05;4.00;;;0.30;99.90;;;;;;5102221;28;20095;-46
2024/01/28 04:33:24;;;;;;;14.88;3.83;;;0.20;99.90;;;;;;5100572;28;20028;-42
2024/01/28 04:35:50;;;;;;;13.73;4.22;;;0.20;99.90;;;;;;5103307;27;20016;-43
2024/01/28 04:38:15;;;;;;;17.73;4.82;;;0.20;99.90;;;;;;5100361;28;20016;-43
2024/01/28 04:40:41;;;;;;;10.80;3.83;;;0.20;99.90;;;;;;5103246;28;20034;-44
2024/01/28 04:43:07;;;;;;;15.93;4.90;;;0.20;99.90;;;;;;5100588;28;20019;-43
2024/01/28 04:45:32;;;;;;;18.88;5.70;;;0.20;99.90;;;;;;5100836;28;20377;-43
2024/01/28 04:47:58;;;;;;;17.65;4.55;;;0.20;99.90;;;;;;5102344;28;20556;-42
2024/01/28 04:50:24;;;;;;;28.05;5.43;;;0.20;99.90;;;;;;5100571;28;20031;-43
2024/01/28 04:52:50;;;;;;;15.38;4.93;;;0.20;99.90;;;;;;5102940;28;20039;-42
2024/01/28 04:55:15;;;;;;;13.60;5.10;;;0.20;99.90;;;;;;5098797;28;20453;-44
2024/01/28 04:57:41;;;;;;;20.25;4.82;;;0.20;99.90;;;;;;5102920;28;20024;-42
2024/01/28 05:00:10;;;;;;;20.55;4.93;;;0.20;99.90;;;;;;5101350;28;20038;-42
2024/01/28 05:02:37;;;;;;;19.17;6.50;;;0.20;99.90;;;;;;5102056;28;20024;-42
2024/01/28 05:05:02;;;;;;;24.63;6.55;;;0.10;99.90;;;;;;5101920;28;20396;-42
2024/01/28 05:07:29;;;;;;;18.58;4.72;;;0.10;99.90;;;;;;5101517;28;20130;-44
2024/01/28 05:09:55;;;;;;;17.30;5.32;;;0.00;99.90;;;;;;5101750;28;20051;-42
2024/01/28 05:12:20;;;;;;;16.42;5.35;;;0.00;99.90;;;;;;5100040;28;20447;-43
2024/01/28 05:14:47;;;;;;;21.42;5.30;;;0.10;99.90;;;;;;5097088;28;20028;-42
2024/01/28 05:17:12;;;;;;;11.70;4.20;;;0.10;99.90;;;;;;5091595;28;20059;-42
2024/01/28 05:19:38;;;;;;;15.50;5.35;;;0.10;99.90;;;;;;5091874;28;20043;-42
2024/01/28 05:22:06;;;;;;;19.42;4.35;;;0.10;99.90;;;;;;5091005;28;20123;-42
2024/01/28 05:24:32;;;;;;;19.27;4.28;;;0.10;99.90;;;;;;5090655;28;20516;-43
2024/01/28 05:26:58;;;;;;;16.10;4.55;;;0.10;99.90;;;;;;5099552;28;20031;-42
2024/01/28 05:29:23;;;;;;;14.93;4.38;;;0.10;99.90;;;;;;5100695;28;20535;-43
2024/01/28 05:31:51;;;;;;;23.15;5.38;;;0.10;99.90;;;;;;5103432;28;20026;-42
2024/01/28 05:34:18;;;;;;;12.02;4.32;;;0.00;99.90;;;;;;5100225;28;20016;-45
2024/01/28 05:36:50;;;;;;;18.42;4.25;;;0.00;99.90;;;;;;5103480;28;20024;-42
2024/01/28 05:39:16;;;;;;;12.73;4.47;;;0.00;99.90;;;;;;5100316;28;20023;-43
2024/01/28 05:41:43;;;;;;;17.98;6.35;;;0.00;99.90;;;;;;5102946;28;20015;-44
2024/01/28 05:44:09;;;;;;;16.15;5.05;;;0.00;99.90;;;;;;5101537;28;20020;-44
2024/01/28 05:46:35;;;;;;;17.52;5.00;;;-0.10;99.90;;;;;;5102293;28;20032;-43
2024/01/28 05:49:01;;;;;;;17.17;5.03;;;-0.10;99.90;;;;;;5102647;28;20026;-42
2024/01/28 05:51:27;;;;;;;10.90;3.72;;;-0.10;99.90;;;;;;5100986;28;20096;-43
2024/01/28 05:53:54;;;;;;;16.75;5.35;;;-0.20;99.90;;;;;;5095550;28;20095;-42
2024/01/28 05:56:20;;;;;;;20.30;6.22;;;-0.10;99.90;;;;;;5090476;28;20103;-43
2024/01/28 05:58:46;;;;;;;14.82;5.80;;;-0.10;99.90;;;;;;5095636;28;20107;-43
2024/01/28 06:01:12;;;;;;;10.90;5.05;;;-0.20;99.90;;;;;;5099718;28;20019;-43
2024/01/28 06:03:38;;;;;;;20.02;5.25;;;-0.20;99.90;;;;;;5102474;28;20032;-43
2024/01/28 06:06:04;;;;;;;22.83;5.32;;;-0.20;99.90;;;;;;5101887;28;20027;-42
2024/01/28 06:08:30;;;;;;;21.80;6.50;;;-0.20;99.90;;;;;;5101479;28;20024;-42
2024/01/28 06:10:56;;;;;;;16.23;5.03;;;-0.20;99.90;;;;;;5103488;28;20027;-44
2024/01/28 06:13:21;;;;;;;22.77;5.38;;;-0.30;99.90;;;;;;5100629;28;20038;-42
2024/01/28 06:15:47;;;;;;;16.45;5.25;;;-0.30;99.90;;;;;;5103900;28;20024;-43
2024/01/28 06:18:13;;;;;;;11.77;4.47;;;-0.30;99.90;;;;;;5101474;28;20478;-44
2024/01/28 06:20:38;;;;;;;9.63;4.03;;;-0.40;99.90;;;;;;5101742;28;20024;-44
2024/01/28 06:23:04;;;;;;;17.13;4.72;;;-0.40;99.90;;;;;;5100950;28;20088;-44
2024/01/28 06:25:30;;;;;;;18.35;5.38;;;-0.40;99.90;;;;;;5099694;28;20030;-42
2024/01/28 06:27:55;;;;;;;15.30;5.53;;;-0.40;99.90;;;;;;5089631;28;20032;-47
2024/01/28 06:30:21;;;;;;;22.52;5.43;;;-0.40;99.90;;;;;;5088466;28;20024;-43
2024/01/28 06:32:47;;;;;;;17.98;5.15;;;-0.40;99.90;;;;;;5089661;28;20035;-44
2024/01/28 06:35:12;;;;;;;21.73;6.38;;;-0.40;99.90;;;;;;5094259;28;20023;-43
2024/01/28 06:37:40;;;;;;;17.88;5.38;;;-0.40;99.90;;;;;;5101545;28;20024;-44
2024/01/28 06:40:06;;;;;;;20.10;5.45;;;-0.50;99.90;;;;;;5093433;28;20098;-45
2024/01/28 06:42:32;;;;;;;16.45;6.10;;;-0.40;99.90;;;;;;5094671;28;20048;-44
2024/01/28 06:44:59;;;;;;;16.42;5.53;;;-0.40;99.90;;;;;;5101971;28;20062;-44
2024/01/28 06:47:25;;;;;;;18.45;6.38;;;-0.40;99.90;;;;;;5101743;28;20044;-43
2024/01/28 06:49:51;;;;;;;21.00;7.40;;;-0.50;99.90;;;;;;5102436;28;20041;-44
2024/01/28 06:52:17;;;;;;;27.45;6.20;;;-0.50;99.90;;;;;;5096576;28;20020;-45
2024/01/28 06:54:42;;;;;;;16.90;5.80;;;-0.50;99.90;;;;;;5105904;28;20346;-45
2024/01/28 06:57:08;;;;;;;16.60;6.15;;;-0.50;99.90;;;;;;5102777;28;20078;-43
2024/01/28 06:59:34;;;;;;;11.93;4.75;;;-0.50;99.90;;;;;;5104352;28;20091;-43
2024/01/28 07:02:00;;;;;;;23.10;6.25;;;-0.50;99.90;;;;;;5104446;28;20023;-43
2024/01/28 07:04:26;;;;;;;16.27;5.97;;;-0.60;99.90;;;;;;5102343;28;20016;-43
2024/01/28 07:06:51;;;;;;;18.25;5.63;;;-0.60;99.90;;;;;;5091630;28;20115;-44
2024/01/28 07:09:17;;;;;;;14.18;6.20;;;-0.60;99.90;;;;;;5093728;28;20031;-45
2024/01/28 07:11:44;;;;;;;13.88;5.43;;;-0.60;99.90;;;;;;5091516;28;20048;-44
2024/01/28 07:14:10;;;;;;;19.23;5.93;;;-0.60;99.90;;;;;;5089654;28;20409;-42
2024/01/28 07:16:36;;;;;;;17.77;5.07;;;-0.70;99.90;;;;;;5091402;28;20054;-43
2024/01/28 07:19:02;;;;;;;19.63;5.43;;;-0.70;99.90;;;;;;5091909;28;20024;-43
2024/01/28 07:21:28;;;;;;;14.18;5.20;;;-0.70;99.90;;;;;;5091912;28;20040;-45
2024/01/28 07:23:54;;;;;;;19.88;5.10;;;-0.70;99.90;;;;;;5091960;28;20051;-44
2024/01/28 07:26:20;;;;;;;13.90;5.82;;;-0.70;99.90;;;;;;5092601;28;20721;-45
2024/01/28 07:28:45;;;;;;;16.02;5.28;;;-0.60;99.90;;;;;;5096145;28;20051;-45
2024/01/28 07:31:11;;;;;;;20.42;7.28;;;-0.50;99.90;;;;;;5101613;28;20019;-44
2024/01/28 07:33:37;;;;;;;21.90;5.32;;;-0.50;99.90;;;;;;5101369;28;20020;-45
2024/01/28 07:36:03;;;;;;;16.15;6.72;;;-0.50;99.90;;;;;;5095572;28;20040;-43
2024/01/28 07:38:29;;;;;;;18.38;5.97;;;-0.50;99.90;;;;;;5092725;28;20020;-45
2024/01/28 07:40:55;;;;;;;14.85;5.40;;;-0.50;99.90;;;;;;5091478;28;20080;-44
2024/01/28 07:43:23;;;;;;;14.02;5.53;;;-0.40;99.90;;;;;;5092745;28;20046;-45
2024/01/28 07:45:50;;;;;;;16.48;5.13;;;-0.40;99.90;;;;;;5096553;28;20012;-43
2024/01/28 07:48:16;;;;;;;16.83;6.80;;;-0.30;99.90;;;;;;5091717;28;20035;-43
2024/01/28 07:50:42;;;;;;;21.33;6.03;;;-0.30;99.90;;;;;;5094123;28;20015;-44
2024/01/28 07:53:08;;;;;;;19.90;6.72;;;-0.20;99.90;;;;;;5095400;28;20027;-44
2024/01/28 07:55:34;;;;;;;23.08;5.95;;;-0.20;99.90;;;;;;5090951;28;20020;-44
2024/01/28 07:57:59;;;;;;;20.50;6.40;;;-0.20;99.90;;;;;;5093502;28;20032;-43
2024/01/28 08:00:25;;;;;;;20.15;6.40;;;-0.10;99.90;;;;;;5092238;28;20035;-44
2024/01/28 08:02:52;;;;;;;23.25;7.68;;;-0.10;99.90;;;;;;5089256;28;20598;-45
2024/01/28 08:05:18;;;;;;;18.63;6.20;;;-0.10;99.90;;;;;;5089018;28;20393;-45
2024/01/28 08:07:44;;;;;;;15.80;6.05;;;0.00;99.90;;;;;;5090646;28;20024;-44
2024/01/28 08:10:09;;;;;;;20.92;6.28;;;0.00;99.90;;;;;;5088416;28;20021;-46
2024/01/28 08:12:35;;;;;;;19.27;6.25;;;0.00;99.90;;;;;;5088460;28;20035;-43
2024/01/28 08:15:01;;;;;;;22.30;6.22;;;0.10;99.90;;;;;;5089328;28;20173;-43
2024/01/28 08:17:26;;;;;;;21.95;6.10;;;0.00;99.90;;;;;;5088994;28;20067;-44
2024/01/28 08:19:52;;;;;;;17.23;6.50;;;0.00;99.90;;;;;;5091442;28;20116;-45
2024/01/28 08:22:18;;;;;;;16.73;6.80;;;0.00;99.90;;;;;;5091206;28;20055;-42
2024/01/28 08:24:43;;;;;;;14.00;6.30;;;0.00;99.90;;;;;;5090331;28;20020;-43
2024/01/28 08:27:09;;;;;;;12.20;5.82;;;0.10;99.90;;;;;;5093245;28;20077;-43
2024/01/28 08:29:37;;;;;;;15.07;6.28;;;0.10;99.90;;;;;;5091625;28;20023;-43
2024/01/28 08:32:03;;;;;;;19.92;6.70;;;0.20;99.90;;;;;;5091427;28;20446;-42
2024/01/28 08:34:29;;;;;;;10.82;6.05;;;0.20;99.90;;;;;;5091341;28;20095;-42
2024/01/28 08:36:54;;;;;;;18.35;6.70;;;0.30;99.90;;;;;;5092916;28;20103;-42
2024/01/28 08:39:20;;;;;;;22.15;7.05;;;0.30;99.90;;;;;;5090896;28;20028;-44
2024/01/28 08:41:45;;;;;;;15.23;7.70;;;0.40;99.90;;;;;;5105951;28;20020;-43
2024/01/28 08:44:15;;;;;;;19.17;7.85;;;0.40;99.90;;;;;;5105882;28;20027;-43
2024/01/28 08:46:40;;;;;;;18.52;6.97;;;0.50;99.90;;;;;;5099950;28;20028;-42
2024/01/28 08:49:07;;;;;;;17.33;6.97;;;0.50;99.90;;;;;;5106972;28;20019;-43
2024/01/28 08:51:32;;;;;;;15.88;6.95;;;0.50;99.90;;;;;;5104555;28;20016;-43
2024/01/28 08:53:58;;;;;;;17.77;7.22;;;0.70;99.90;;;;;;5107032;28;20423;-44
2024/01/28 08:56:23;;;;;;;18.23;6.80;;;0.70;99.90;;;;;;5104639;28;20028;-43
2024/01/28 08:58:49;;;;;;;18.20;6.90;;;0.80;99.90;;;;;;5106625;28;20026;-42
2024/01/28 09:01:15;;;;;;;14.10;6.60;;;0.90;99.90;;;;;;5093596;28;20099;-43
2024/01/28 09:03:41;;;;;;;15.25;6.95;;;1.00;99.90;;;;;;5096814;28;20431;-44
2024/01/28 09:06:06;;;;;;;12.27;6.38;;;1.20;99.90;;;;;;5094574;28;20019;-43
2024/01/28 09:08:33;;;;;;;12.23;6.00;;;1.30;99.90;;;;;;5105044;28;20012;-42
2024/01/28 09:11:00;;;;;;;13.15;5.90;;;1.40;99.90;;;;;;5107252;28;20042;-43
2024/01/28 09:13:25;;;;;;;11.13;5.18;;;1.50;99.90;;;;;;5105786;28;20023;-45
2024/01/28 09:15:51;;;;;;;16.88;5.82;;;1.60;99.90;;;;;;5107850;28;20051;-44
2024/01/28 09:18:17;;;;;;;9.27;5.05;;;1.70;99.90;;;;;;5106548;28;20035;-44
2024/01/28 09:20:43;;;;;;;13.85;5.43;;;1.80;99.90;;;;;;5107945;28;20024;-44
2024/01/28 09:23:08;;;;;;;11.32;4.85;;;1.90;99.90;;;;;;5107932;28;20420;-47
2024/01/28 09:25:34;;;;;;;10.07;5.07;;;2.10;99.90;;;;;;5106683;28;20449;-45
2024/01/28 09:28:00;;;;;;;13.65;5.47;;;2.20;99.90;;;;;;5101730;28;20022;-44
2024/01/28 09:30:26;;;;;;;23.88;6.13;;;2.40;99.90;;;;;;5106742;28;20023;-43
2024/01/28 09:32:51;;;;;;;12.32;5.05;;;2.50;99.90;;;;;;5108270;28;20030;-47
2024/01/28 09:35:17;;;;;;;17.42;4.97;;;2.60;99.90;;;;;;5107347;28;20053;-44
2024/01/28 09:37:43;;;;;;;14.20;5.00;;;2.70;99.90;;;;;;5108087;28;20062;-43
2024/01/28 09:40:12;;;;;;;19.13;5.68;;;2.80;99.90;;;;;;5108116;28;20054;-43
2024/01/28 09:42:49;;;;;;;9.73;4.43;;;2.90;99.90;;;;;;5106104;28;20107;-43
2024/01/28 09:45:15;;;;;;;11.32;4.82;;;2.90;99.90;;;;;;5107629;28;20023;-43
2024/01/28 09:47:42;;;;;;;10.90;4.47;;;3.10;99.90;;;;;;5107990;28;20047;-45
2024/01/28 09:50:08;;;;;;;12.88;5.03;;;3.10;99.90;;;;;;5101595;28;20027;-45
2024/01/28 09:52:34;;;;;;;10.07;4.90;;;3.20;99.90;;;;;;5106384;28;20091;-46
2024/01/28 09:55:00;;;;;;;14.88;6.03;;;3.20;99.90;;;;;;5108421;28;20032;-45
2024/01/28 09:57:26;;;;;;;13.02;4.22;;;3.30;99.90;;;;;;5103948;28;20028;-45
2024/01/28 09:59:52;;;;;;;12.43;4.47;;;3.40;99.90;;;;;;5091568;28;20016;-45
2024/01/28 10:02:18;;;;;;;17.17;5.15;;;3.40;99.90;;;;;;5090321;28;20042;-43
2024/01/28 10:04:45;;;;;;;10.13;3.33;;;3.60;99.90;;;;;;5090473;28;20074;-44
2024/01/28 10:07:11;;;;;;;8.63;3.35;;;3.70;99.90;;;;;;5090470;28;20020;-44
2024/01/28 10:09:37;;;;;;;10.60;3.20;;;3.80;99.90;;;;;;5089654;28;20028;-41
2024/01/28 10:12:04;;;;;;;12.73;3.00;;;4.00;99.90;;;;;;5095428;28;20078;-44
2024/01/28 10:14:30;;;;;;;6.90;2.72;;;4.00;99.90;;;;;;5095837;28;20413;-46
2024/01/28 10:16:58;;;;;;;16.33;3.25;;;4.20;99.90;;;;;;5102257;28;20024;-44
2024/01/28 10:19:24;;;;;;;16.45;3.58;;;4.40;99.90;;;;;;5097070;28;20107;-45
2024/01/28 10:21:51;;;;;;;10.68;3.90;;;4.50;99.90;;;;;;5093466;28;20111;-44
2024/01/28 10:24:18;;;;;;;13.98;3.45;;;4.80;99.90;;;;;;5107939;28;20011;-41
2024/01/28 10:26:44;;;;;;;9.85;4.45;;;5.40;99.90;;;;;;5103643;28;20103;-44
2024/01/28 10:29:12;;;;;;;7.30;3.20;;;7.20;99.90;;;;;;5108508;28;20115;-45
2024/01/28 10:31:38;;;;;;;7.53;3.03;;;9.30;99.90;;;;;;5106893;28;20008;-45
2024/01/28 10:34:04;;;;;;;7.97;3.17;;;11.40;99.90;;;;;;5106350;28;20066;-46
2024/01/28 10:36:36;;;;;;;8.43;2.70;;;13.20;95.80;;;;;;5106529;28;20051;-44
2024/01/28 10:39:04;;;;;;;8.02;3.13;;;14.50;91.00;;;;;;5107533;28;20131;-46
2024/01/28 10:41:33;;;;;;;8.68;2.53;;;15.90;89.00;;;;;;5106014;28;20030;-46
2024/01/28 10:44:06;;;;;;;7.10;2.83;;;16.80;78.20;;;;;;5107838;28;20454;-44
2024/01/28 10:46:38;;;;;;;7.20;2.42;;;17.60;77.60;;;;;;5106940;28;20288;-47
2024/01/28 10:49:05;;;;;;;5.68;2.53;;;18.50;74.20;;;;;;5108605;28;20373;-47
2024/01/28 10:51:35;;;;;;;5.90;2.63;;;19.20;71.30;;;;;;5107619;28;20027;-43
2024/01/28 10:54:07;;;;;;;5.57;2.70;;;19.80;66.70;;;;;;5108672;28;20028;-43
2024/01/28 10:56:33;;;;;;;6.72;2.65;;;20.00;65.50;;;;;;5104866;28;20069;-44
2024/01/28 10:58:59;;;;;;;7.82;2.60;;;20.30;61.80;;;;;;5090393;28;20055;-44
2024/01/28 11:01:27;;;;;;;10.13;3.05;;;20.50;62.50;;;;;;5094097;28;20056;-48
2024/01/28 11:03:53;;;;;;;8.80;2.90;;;20.60;60.10;;;;;;5098479;28;20020;-45
2024/01/28 11:06:19;;;;;;;7.82;3.08;;;20.90;60.60;;;;;;5102343;28;20422;-47
2024/01/28 11:08:45;;;;;;;7.50;2.63;;;21.00;60.10;;;;;;5109077;28;20020;-45
2024/01/28 11:11:12;;;;;;;5.72;2.85;;;21.00;59.50;;;;;;5109031;28;20480;-45
2024/01/28 11:13:38;;;;;;;7.10;2.70;;;20.60;59.00;;;;;;5101889;28;20027;-44
2024/01/28 11:16:10;;;;;;;8.38;2.40;;;20.70;58.60;;;;;;5102435;28;20032;-46
2024/01/28 11:18:35;;;;;;;5.93;2.50;;;20.50;57.30;;;;;;5100696;28;20030;-44
2024/01/28 11:21:19;;;;;;;4.18;2.42;;;21.00;59.80;;;;;;5098326;28;20036;-44
2024/01/28 11:23:47;;;;;;;6.07;2.85;;;21.60;57.00;;;;;;5095365;28;20020;-47
2024/01/28 11:26:17;;;;;;;5.57;2.22;;;20.90;60.70;;;;;;5109033;28;20026;-45
2024/01/28 11:28:50;;;;;;;8.77;2.38;;;20.70;56.40;;;;;;5112328;28;20011;-44
2024/01/28 11:31:29;;;;;;;8.95;3.10;;;20.50;55.80;;;;;;5112735;28;20434;-45
2024/01/28 11:33:55;;;;;;;9.07;2.40;;;21.10;57.10;;;;;;5113248;27;20551;-45
2024/01/28 11:36:27;;;;;;;4.85;2.33;;;21.50;56.10;;;;;;5111207;28;20024;-45
2024/01/28 11:39:04;;;;;;;5.28;2.28;;;22.60;54.60;;;;;;5112878;28;20065;-45
2024/01/28 11:41:37;;;;;;;4.68;2.40;;;22.70;54.20;;;;;;5112318;27;20027;-43
2024/01/28 11:44:04;;;;;;;4.47;2.20;;;22.00;54.90;;;;;;5113155;28;20019;-44
2024/01/28 11:46:30;;;;;;;5.35;2.65;;;21.90;54.80;;;;;;5093732;27;20024;-46
2024/01/28 11:48:56;;;;;;;6.18;2.67;;;22.20;53.50;;;;;;5092900;28;20024;-45
2024/01/28 11:51:21;;;;;;;7.32;2.70;;;22.20;53.10;;;;;;5100866;28;20099;-44
2024/01/28 11:53:47;;;;;;;6.88;2.78;;;23.10;52.90;;;;;;5113182;28;20735;-45
2024/01/28 11:56:13;;;;;;;7.13;2.65;;;22.90;52.60;;;;;;5113256;28;20072;-44
2024/01/28 11:58:38;;;;;;;7.10;2.30;;;22.70;53.00;;;;;;5112929;28;20024;-44
2024/01/28 12:01:04;;;;;;;4.25;2.40;;;22.20;55.30;;;;;;5112933;28;20023;-44
2024/01/28 12:03:30;;;;;;;7.93;2.58;;;22.10;54.40;;;;;;5112960;28;20038;-46
2024/01/28 12:05:58;;;;;;;9.73;3.08;;;22.00;54.20;;;;;;5113124;28;20031;-45
2024/01/28 12:08:26;;;;;;;6.13;2.33;;;22.00;53.80;;;;;;5095582;28;20059;-45
2024/01/28 12:10:59;;;;;;;6.78;2.40;;;22.50;51.90;;;;;;5092801;28;20012;-44
2024/01/28 12:13:24;;;;;;;6.53;2.63;;;22.70;52.20;;;;;;5092567;28;20077;-44
2024/01/28 12:15:50;;;;;;;5.28;2.47;;;21.90;51.60;;;;;;5092321;28;20028;-43
2024/01/28 12:18:21;;;;;;;4.60;2.22;;;21.50;51.90;;;;;;5091247;28;20020;-45
2024/01/28 12:20:51;;;;;;;4.53;2.10;;;22.20;53.00;;;;;;5092406;28;20016;-46
2024/01/28 12:23:19;;;;;;;6.32;2.20;;;23.00;50.30;;;;;;5092739;28;20035;-45
2024/01/28 12:25:44;;;;;;;6.60;2.25;;;22.20;52.80;;;;;;5092273;28;20062;-45
2024/01/28 12:28:10;;;;;;;5.03;2.20;;;22.10;54.10;;;;;;5089173;28;20055;-45
2024/01/28 12:30:37;;;;;;;3.30;1.80;;;22.90;52.00;;;;;;5090407;28;20012;-45
2024/01/28 12:33:04;;;;;;;6.32;2.53;;;22.80;50.80;;;;;;5090331;28;20020;-45
2024/01/28 12:35:29;;;;;;;7.00;2.33;;;22.90;51.30;;;;;;5090701;28;20034;-45
2024/01/28 12:37:55;;;;;;;5.35;2.25;;;22.40;51.10;;;;;;5091042;28;20024;-45
2024/01/28 12:40:21;;;;;;;4.95;2.40;;;21.40;51.90;;;;;;5091102;28;20224;-47